sensor_id;sensor_type;location;lat;lon;timestamp;pressure;altitude;pressure_sealevel;temperature;humidity
36828;BME280;22766;48.042;11.192;2023-03-05T00:01:20;95210.66;;;-1.09;100.00
36828;BME280;22766;48.042;11.192;2023-03-05T00:03:52;95206.31;;;-1.07;100.00
36828;BME280;22766;48.042;11.192;2023-03-05T00:06:21;95204.97;;;-0.97;100.00
36828;BME280;22766;48.042;11.192;2023-03-05T00:08:49;95207.91;;;-0.89;100.00
36828;BME280;22766;48.042;11.192;2023-03-05T00:11:20;95208.69;;;-1.04;100.00
36828;BME280;22766;48.042;11.192;2023-03-05T00:13:51;95197.03;;;-0.91;100.00
36828;BME280;22766;48.042;11.192;2023-03-05T00:16:19;95194.50;;;-0.75;100.00
36828;BME280;22766;48.042;11.192;2023-03-05T00:18:47;95192.03;;;-0.93;100.00
36828;BME280;22766;48.042;11.192;2023-03-05T00:21:20;95198.41;;;-1.01;100.00
36828;BME280;22766;48.042;11.192;2023-03-05T00:23:48;95189.16;;;-1.02;100.00
36828;BME280;22766;48.042;11.192;2023-03-05T00:26:20;95186.13;;;-1.09;100.00
36828;BME280;22766;48.042;11.192;2023-03-05T00:28:48;95182.94;;;-1.12;100.00
36828;BME280;22766;48.042;11.192;2023-03-05T00:31:17;95178.97;;;-1.18;100.00
36828;BME280;22766;48.042;11.192;2023-03-05T00:33:45;95182.59;;;-1.06;100.00
36828;BME280;22766;48.042;11.192;2023-03-05T00:36:11;95174.34;;;-1.10;100.00
36828;BME280;22766;48.042;11.192;2023-03-05T00:38:38;95177.97;;;-0.98;100.00
36828;BME280;22766;48.042;11.192;2023-03-05T00:41:05;95181.56;;;-1.02;100.00
36828;BME280;22766;48.042;11.192;2023-03-05T00:43:32;95176.06;;;-1.10;100.00
36828;BME280;22766;48.042;11.192;2023-03-05T00:45:58;95175.91;;;-1.07;100.00
36828;BME280;22766;48.042;11.192;2023-03-05T00:48:25;95170.84;;;-1.07;100.00
36828;BME280;22766;48.042;11.192;2023-03-05T00:50:52;95168.31;;;-1.07;100.00
36828;BME280;22766;48.042;11.192;2023-03-05T00:53:19;95166.56;;;-1.22;100.00
36828;BME280;22766;48.042;11.192;2023-03-05T00:55:46;95155.09;;;-1.12;100.00
36828;BME280;22766;48.042;11.192;2023-03-05T00:58:13;95155.75;;;-1.09;100.00
36828;BME280;22766;48.042;11.192;2023-03-05T01:00:40;95157.00;;;-1.17;100.00
36828;BME280;22766;48.042;11.192;2023-03-05T01:03:07;95151.59;;;-1.27;100.00
36828;BME280;22766;48.042;11.192;2023-03-05T01:05:33;95144.16;;;-1.30;100.00
36828;BME280;22766;48.042;11.192;2023-03-05T01:08:00;95136.72;;;-1.33;100.00
36828;BME280;22766;48.042;11.192;2023-03-05T01:10:27;95140.59;;;-1.26;100.00
36828;BME280;22766;48.042;11.192;2023-03-05T01:12:56;95134.63;;;-1.25;100.00
36828;BME280;22766;48.042;11.192;2023-03-05T01:15:23;95137.06;;;-1.23;100.00
36828;BME280;22766;48.042;11.192;2023-03-05T01:17:50;95135.53;;;-1.26;100.00
36828;BME280;22766;48.042;11.192;2023-03-05T01:20:18;95131.19;;;-1.24;100.00
36828;BME280;22766;48.042;11.192;2023-03-05T01:22:45;95127.84;;;-1.24;100.00
36828;BME280;22766;48.042;11.192;2023-03-05T01:25:13;95127.59;;;-1.20;100.00
36828;BME280;22766;48.042;11.192;2023-03-05T01:27:40;95120.59;;;-1.15;100.00
36828;BME280;22766;48.042;11.192;2023-03-05T01:30:08;95111.34;;;-1.16;100.00
36828;BME280;22766;48.042;11.192;2023-03-05T01:32:35;95121.56;;;-1.02;100.00
36828;BME280;22766;48.042;11.192;2023-03-05T01:35:04;95112.59;;;-1.07;100.00
36828;BME280;22766;48.042;11.192;2023-03-05T01:37:31;95117.75;;;-1.09;100.00
36828;BME280;22766;48.042;11.192;2023-03-05T01:39:58;95116.50;;;-1.02;100.00
36828;BME280;22766;48.042;11.192;2023-03-05T01:42:24;95110.53;;;-1.01;100.00
36828;BME280;22766;48.042;11.192;2023-03-05T01:47:30;95118.56;;;-0.77;100.00
36828;BME280;22766;48.042;11.192;2023-03-05T01:49:58;95111.94;;;-0.79;100.00
36828;BME280;22766;48.042;11.192;2023-03-05T01:52:26;95105.47;;;-0.85;100.00
36828;BME280;22766;48.042;11.192;2023-03-05T01:55:00;95105.31;;;-0.82;100.00
36828;BME280;22766;48.042;11.192;2023-03-05T01:57:49;95111.28;;;-0.83;100.00
36828;BME280;22766;48.042;11.192;2023-03-05T02:00:21;95104.66;;;-0.85;100.00
36828;BME280;22766;48.042;11.192;2023-03-05T02:02:51;95099.09;;;-0.92;100.00
36828;BME280;22766;48.042;11.192;2023-03-05T02:05:23;95095.97;;;-0.81;100.00
36828;BME280;22766;48.042;11.192;2023-03-05T02:08:02;95092.72;;;-0.68;100.00
36828;BME280;22766;48.042;11.192;2023-03-05T02:10:35;95097.53;;;-0.79;100.00
36828;BME280;22766;48.042;11.192;2023-03-05T02:13:09;95093.84;;;-0.89;100.00
36828;BME280;22766;48.042;11.192;2023-03-05T02:15:37;95092.97;;;-0.88;100.00
36828;BME280;22766;48.042;11.192;2023-03-05T02:18:05;95088.06;;;-0.91;100.00
36828;BME280;22766;48.042;11.192;2023-03-05T02:20:51;95088.13;;;-0.93;100.00
36828;BME280;22766;48.042;11.192;2023-03-05T02:23:20;95087.59;;;-0.98;100.00
36828;BME280;22766;48.042;11.192;2023-03-05T02:25:47;95074.91;;;-0.98;100.00
36828;BME280;22766;48.042;11.192;2023-03-05T02:28:23;95075.56;;;-0.94;100.00
36828;BME280;22766;48.042;11.192;2023-03-05T02:30:51;95081.13;;;-0.87;100.00
36828;BME280;22766;48.042;11.192;2023-03-05T02:33:19;95076.94;;;-0.88;100.00
36828;BME280;22766;48.042;11.192;2023-03-05T02:35:47;95077.84;;;-0.89;100.00
36828;BME280;22766;48.042;11.192;2023-03-05T02:38:16;95067.00;;;-0.91;100.00
36828;BME280;22766;48.042;11.192;2023-03-05T02:40:43;95065.19;;;-0.89;100.00
36828;BME280;22766;48.042;11.192;2023-03-05T02:43:11;95072.78;;;-0.89;100.00
36828;BME280;22766;48.042;11.192;2023-03-05T02:45:38;95067.00;;;-0.91;100.00
36828;BME280;22766;48.042;11.192;2023-03-05T02:48:06;95060.34;;;-0.94;100.00
36828;BME280;22766;48.042;11.192;2023-03-05T02:50:33;95065.44;;;-0.94;100.00
36828;BME280;22766;48.042;11.192;2023-03-05T02:53:00;95056.91;;;-0.93;100.00
36828;BME280;22766;48.042;11.192;2023-03-05T02:55:28;95063.31;;;-1.02;100.00
36828;BME280;22766;48.042;11.192;2023-03-05T02:57:55;95056.75;;;-1.06;100.00
36828;BME280;22766;48.042;11.192;2023-03-05T03:00:22;95054.22;;;-0.74;100.00
36828;BME280;22766;48.042;11.192;2023-03-05T03:02:48;95051.44;;;-0.85;100.00
36828;BME280;22766;48.042;11.192;2023-03-05T03:05:15;95044.19;;;-0.91;100.00
36828;BME280;22766;48.042;11.192;2023-03-05T03:07:42;95040.19;;;-0.96;100.00
36828;BME280;22766;48.042;11.192;2023-03-05T03:10:09;95033.53;;;-0.98;100.00
36828;BME280;22766;48.042;11.192;2023-03-05T03:12:38;95041.00;;;-0.95;100.00
36828;BME280;22766;48.042;11.192;2023-03-05T03:15:07;95034.28;;;-0.96;100.00
36828;BME280;22766;48.042;11.192;2023-03-05T03:17:35;95029.22;;;-0.96;100.00
36828;BME280;22766;48.042;11.192;2023-03-05T03:20:07;95026.50;;;-0.93;100.00
36828;BME280;22766;48.042;11.192;2023-03-05T03:22:35;95020.78;;;-0.97;100.00
36828;BME280;22766;48.042;11.192;2023-03-05T03:25:03;95016.38;;;-0.93;100.00
36828;BME280;22766;48.042;11.192;2023-03-05T03:27:30;95012.94;;;-0.92;100.00
36828;BME280;22766;48.042;11.192;2023-03-05T03:29:57;95018.41;;;-0.84;100.00
36828;BME280;22766;48.042;11.192;2023-03-05T03:32:28;95025.09;;;-0.83;100.00
36828;BME280;22766;48.042;11.192;2023-03-05T03:34:54;95018.41;;;-0.84;100.00
36828;BME280;22766;48.042;11.192;2023-03-05T03:37:21;95015.19;;;-0.72;100.00
36828;BME280;22766;48.042;11.192;2023-03-05T03:39:48;95015.72;;;-0.81;100.00
36828;BME280;22766;48.042;11.192;2023-03-05T03:42:19;95014.66;;;-0.77;100.00
36828;BME280;22766;48.042;11.192;2023-03-05T03:44:46;95011.63;;;-0.83;100.00
36828;BME280;22766;48.042;11.192;2023-03-05T03:47:13;95010.19;;;-0.87;100.00
36828;BME280;22766;48.042;11.192;2023-03-05T03:49:40;95010.41;;;-0.92;100.00
36828;BME280;22766;48.042;11.192;2023-03-05T03:52:07;95007.56;;;-0.86;100.00
36828;BME280;22766;48.042;11.192;2023-03-05T03:54:34;95005.75;;;-0.84;100.00
36828;BME280;22766;48.042;11.192;2023-03-05T03:57:00;95003.38;;;-0.87;100.00
36828;BME280;22766;48.042;11.192;2023-03-05T03:59:27;95002.94;;;-0.79;100.00
36828;BME280;22766;48.042;11.192;2023-03-05T04:01:54;95000.34;;;-0.78;100.00
36828;BME280;22766;48.042;11.192;2023-03-05T04:04:20;95002.78;;;-0.76;100.00
36828;BME280;22766;48.042;11.192;2023-03-05T04:06:47;94990.38;;;-0.81;100.00
36828;BME280;22766;48.042;11.192;2023-03-05T04:09:14;94986.44;;;-0.86;100.00
36828;BME280;22766;48.042;11.192;2023-03-05T04:11:40;94982.38;;;-0.89;100.00
36828;BME280;22766;48.042;11.192;2023-03-05T04:14:07;94987.69;;;-0.93;100.00
36828;BME280;22766;48.042;11.192;2023-03-05T04:16:34;94991.75;;;-0.91;100.00
36828;BME280;22766;48.042;11.192;2023-03-05T04:19:00;94983.31;;;-0.76;100.00
36828;BME280;22766;48.042;11.192;2023-03-05T04:21:27;94979.72;;;-0.72;100.00
36828;BME280;22766;48.042;11.192;2023-03-05T04:23:55;94980.72;;;-0.74;100.00
36828;BME280;22766;48.042;11.192;2023-03-05T04:26:21;94976.38;;;-0.72;100.00
36828;BME280;22766;48.042;11.192;2023-03-05T04:28:48;94972.94;;;-0.71;100.00
36828;BME280;22766;48.042;11.192;2023-03-05T04:31:15;94968.19;;;-0.77;100.00
36828;BME280;22766;48.042;11.192;2023-03-05T04:33:42;94964.94;;;-0.79;100.00
36828;BME280;22766;48.042;11.192;2023-03-05T04:36:09;94968.78;;;-0.72;100.00
36828;BME280;22766;48.042;11.192;2023-03-05T04:38:36;94963.78;;;-0.74;100.00
36828;BME280;22766;48.042;11.192;2023-03-05T04:41:02;94965.50;;;-0.74;100.00
36828;BME280;22766;48.042;11.192;2023-03-05T04:43:29;94959.28;;;-0.69;100.00
36828;BME280;22766;48.042;11.192;2023-03-05T04:45:56;94960.44;;;-0.74;100.00
36828;BME280;22766;48.042;11.192;2023-03-05T04:48:23;94961.22;;;-0.74;100.00
36828;BME280;22766;48.042;11.192;2023-03-05T04:50:50;94954.78;;;-0.79;100.00
36828;BME280;22766;48.042;11.192;2023-03-05T04:53:16;94954.25;;;-0.84;100.00
36828;BME280;22766;48.042;11.192;2023-03-05T04:55:43;94952.34;;;-0.81;100.00
36828;BME280;22766;48.042;11.192;2023-03-05T04:58:10;94950.53;;;-0.79;100.00
36828;BME280;22766;48.042;11.192;2023-03-05T05:00:37;94943.28;;;-0.85;100.00
36828;BME280;22766;48.042;11.192;2023-03-05T05:03:04;94942.41;;;-0.84;100.00
36828;BME280;22766;48.042;11.192;2023-03-05T05:05:31;94945.38;;;-0.77;100.00
36828;BME280;22766;48.042;11.192;2023-03-05T05:07:57;94949.28;;;-0.72;100.00
36828;BME280;22766;48.042;11.192;2023-03-05T05:10:25;94941.78;;;-0.73;100.00
36828;BME280;22766;48.042;11.192;2023-03-05T05:12:52;94933.53;;;-0.77;100.00
36828;BME280;22766;48.042;11.192;2023-03-05T05:15:19;94943.34;;;-0.71;100.00
36828;BME280;22766;48.042;11.192;2023-03-05T05:17:46;94936.13;;;-0.63;100.00
36828;BME280;22766;48.042;11.192;2023-03-05T05:20:15;94938.25;;;-0.71;100.00
36828;BME280;22766;48.042;11.192;2023-03-05T05:22:42;94931.09;;;-0.64;100.00
36828;BME280;22766;48.042;11.192;2023-03-05T05:25:09;94941.53;;;-0.69;100.00
36828;BME280;22766;48.042;11.192;2023-03-05T05:27:38;94934.66;;;-0.67;100.00
36828;BME280;22766;48.042;11.192;2023-03-05T05:30:05;94936.28;;;-0.66;100.00
36828;BME280;22766;48.042;11.192;2023-03-05T05:32:33;94940.47;;;-0.65;100.00
36828;BME280;22766;48.042;11.192;2023-03-05T05:34:59;94939.72;;;-0.67;100.00
36828;BME280;22766;48.042;11.192;2023-03-05T05:37:26;94940.47;;;-0.65;100.00
36828;BME280;22766;48.042;11.192;2023-03-05T05:39:53;94941.34;;;-0.66;100.00
36828;BME280;22766;48.042;11.192;2023-03-05T05:42:21;94946.06;;;-0.60;100.00
36828;BME280;22766;48.042;11.192;2023-03-05T05:44:50;94946.06;;;-0.60;100.00
36828;BME280;22766;48.042;11.192;2023-03-05T05:47:17;94948.06;;;-0.51;100.00
36828;BME280;22766;48.042;11.192;2023-03-05T05:49:44;94943.94;;;-0.52;100.00
36828;BME280;22766;48.042;11.192;2023-03-05T05:52:11;94944.56;;;-0.48;100.00
36828;BME280;22766;48.042;11.192;2023-03-05T05:54:38;94939.25;;;-0.44;100.00
36828;BME280;22766;48.042;11.192;2023-03-05T05:57:06;94941.78;;;-0.44;100.00
36828;BME280;22766;48.042;11.192;2023-03-05T05:59:32;94945.38;;;-0.48;100.00
36828;BME280;22766;48.042;11.192;2023-03-05T06:01:59;94944.31;;;-0.44;100.00
36828;BME280;22766;48.042;11.192;2023-03-05T06:04:26;94941.69;;;-0.42;100.00
36828;BME280;22766;48.042;11.192;2023-03-05T06:06:53;94946.56;;;-0.39;100.00
36828;BME280;22766;48.042;11.192;2023-03-05T06:09:19;94946.22;;;-0.33;100.00
36828;BME280;22766;48.042;11.192;2023-03-05T06:11:46;94946.31;;;-0.35;100.00
36828;BME280;22766;48.042;11.192;2023-03-05T06:14:13;94943.59;;;-0.32;100.00
36828;BME280;22766;48.042;11.192;2023-03-05T06:16:40;94949.28;;;-0.28;100.00
36828;BME280;22766;48.042;11.192;2023-03-05T06:19:10;94940.16;;;-0.31;100.00
36828;BME280;22766;48.042;11.192;2023-03-05T06:21:37;94947.09;;;-0.34;100.00
36828;BME280;22766;48.042;11.192;2023-03-05T06:24:05;94942.75;;;-0.32;100.00
36828;BME280;22766;48.042;11.192;2023-03-05T06:26:32;94938.34;;;-0.29;100.00
36828;BME280;22766;48.042;11.192;2023-03-05T06:28:59;94939.78;;;-0.25;100.00
36828;BME280;22766;48.042;11.192;2023-03-05T06:31:28;94935.63;;;-0.26;100.00
36828;BME280;22766;48.042;11.192;2023-03-05T06:33:57;94937.97;;;-0.23;100.00
36828;BME280;22766;48.042;11.192;2023-03-05T06:36:27;94929.13;;;-0.16;100.00
36828;BME280;22766;48.042;11.192;2023-03-05T06:38:54;94931.09;;;-0.07;100.00
36828;BME280;22766;48.042;11.192;2023-03-05T06:41:25;94932.47;;;-0.01;100.00
36828;BME280;22766;48.042;11.192;2023-03-05T06:43:53;94927.38;;;-0.01;100.00
36828;BME280;22766;48.042;11.192;2023-03-05T06:46:28;94932.34;;;0.00;100.00
36828;BME280;22766;48.042;11.192;2023-03-05T06:48:57;94937.19;;;0.05;100.00
36828;BME280;22766;48.042;11.192;2023-03-05T06:51:30;94931.47;;;0.02;100.00
36828;BME280;22766;48.042;11.192;2023-03-05T06:54:02;94927.28;;;0.00;100.00
36828;BME280;22766;48.042;11.192;2023-03-05T06:56:30;94933.00;;;0.04;100.00
36828;BME280;22766;48.042;11.192;2023-03-05T06:58:58;94931.75;;;0.11;100.00
36828;BME280;22766;48.042;11.192;2023-03-05T07:01:24;94934.53;;;0.07;100.00
36828;BME280;22766;48.042;11.192;2023-03-05T07:03:53;94929.56;;;0.05;100.00
36828;BME280;22766;48.042;11.192;2023-03-05T07:06:21;94927.03;;;0.05;100.00
36828;BME280;22766;48.042;11.192;2023-03-05T07:08:48;94930.38;;;0.06;100.00
36828;BME280;22766;48.042;11.192;2023-03-05T07:11:18;94932.28;;;0.16;100.00
36828;BME280;22766;48.042;11.192;2023-03-05T07:13:47;94932.16;;;0.18;100.00
36828;BME280;22766;48.042;11.192;2023-03-05T07:16:19;94927.72;;;0.21;100.00
36828;BME280;22766;48.042;11.192;2023-03-05T07:18:47;94934.59;;;0.19;100.00
36828;BME280;22766;48.042;11.192;2023-03-05T07:21:17;94933.97;;;0.30;100.00
36828;BME280;22766;48.042;11.192;2023-03-05T07:23:44;94924.63;;;0.71;100.00
36828;BME280;22766;48.042;11.192;2023-03-05T07:26:12;94921.69;;;0.64;100.00
36828;BME280;22766;48.042;11.192;2023-03-05T07:28:39;94929.13;;;0.80;100.00
36828;BME280;22766;48.042;11.192;2023-03-05T07:31:07;94929.84;;;1.09;100.00
36828;BME280;22766;48.042;11.192;2023-03-05T07:33:36;94916.56;;;1.18;100.00
36828;BME280;22766;48.042;11.192;2023-03-05T07:36:06;94921.91;;;1.01;100.00
36828;BME280;22766;48.042;11.192;2023-03-05T07:38:33;94926.03;;;0.89;100.00
36828;BME280;22766;48.042;11.192;2023-03-05T07:41:04;94921.13;;;0.86;100.00
36828;BME280;22766;48.042;11.192;2023-03-05T07:43:32;94924.84;;;0.94;100.00
36828;BME280;22766;48.042;11.192;2023-03-05T07:45:58;94920.75;;;0.92;100.00
36828;BME280;22766;48.042;11.192;2023-03-05T07:48:25;94917.75;;;1.12;100.00
36828;BME280;22766;48.042;11.192;2023-03-05T07:51:02;94918.72;;;0.97;100.00
36828;BME280;22766;48.042;11.192;2023-03-05T07:53:29;94917.97;;;1.22;100.00
36828;BME280;22766;48.042;11.192;2023-03-05T07:55:56;94920.03;;;1.29;100.00
36828;BME280;22766;48.042;11.192;2023-03-05T07:58:23;94908.22;;;1.16;100.00
36828;BME280;22766;48.042;11.192;2023-03-05T08:00:50;94909.22;;;1.13;100.00
36828;BME280;22766;48.042;11.192;2023-03-05T08:03:17;94907.69;;;1.11;100.00
36828;BME280;22766;48.042;11.192;2023-03-05T08:05:44;94904.88;;;1.28;100.00
36828;BME280;22766;48.042;11.192;2023-03-05T08:08:11;94901.31;;;1.18;100.00
36828;BME280;22766;48.042;11.192;2023-03-05T08:10:38;94902.81;;;1.08;100.00
36828;BME280;22766;48.042;11.192;2023-03-05T08:13:04;94905.09;;;1.25;100.00
36828;BME280;22766;48.042;11.192;2023-03-05T08:15:31;94899.19;;;1.24;100.00
36828;BME280;22766;48.042;11.192;2023-03-05T08:17:58;94897.25;;;1.28;100.00
36828;BME280;22766;48.042;11.192;2023-03-05T08:20:25;94896.69;;;1.49;100.00
36828;BME280;22766;48.042;11.192;2023-03-05T08:22:52;94904.13;;;1.65;100.00
36828;BME280;22766;48.042;11.192;2023-03-05T08:25:19;94897.47;;;1.75;100.00
36828;BME280;22766;48.042;11.192;2023-03-05T08:27:47;94900.34;;;1.70;100.00
36828;BME280;22766;48.042;11.192;2023-03-05T08:30:18;94899.44;;;1.97;100.00
36828;BME280;22766;48.042;11.192;2023-03-05T08:32:47;94899.22;;;1.87;100.00
36828;BME280;22766;48.042;11.192;2023-03-05T08:35:13;94898.41;;;1.86;100.00
36828;BME280;22766;48.042;11.192;2023-03-05T08:37:40;94888.16;;;1.88;100.00
36828;BME280;22766;48.042;11.192;2023-03-05T08:40:07;94896.06;;;1.96;100.00
36828;BME280;22766;48.042;11.192;2023-03-05T08:42:34;94896.16;;;1.95;100.00
36828;BME280;22766;48.042;11.192;2023-03-05T08:45:01;94896.47;;;1.90;100.00
36828;BME280;22766;48.042;11.192;2023-03-05T08:47:28;94884.88;;;1.73;100.00
36828;BME280;22766;48.042;11.192;2023-03-05T08:49:54;94884.75;;;1.75;100.00
36828;BME280;22766;48.042;11.192;2023-03-05T08:52:23;94892.31;;;1.76;100.00
36828;BME280;22766;48.042;11.192;2023-03-05T08:54:49;94887.00;;;1.92;100.00
36828;BME280;22766;48.042;11.192;2023-03-05T08:57:16;94884.25;;;1.82;100.00
36828;BME280;22766;48.042;11.192;2023-03-05T08:59:43;94878.44;;;2.06;100.00
36828;BME280;22766;48.042;11.192;2023-03-05T09:02:11;94880.63;;;2.23;100.00
36828;BME280;22766;48.042;11.192;2023-03-05T09:04:38;94879.56;;;2.14;100.00
36828;BME280;22766;48.042;11.192;2023-03-05T09:07:05;94885.31;;;2.29;100.00
36828;BME280;22766;48.042;11.192;2023-03-05T09:09:32;94873.09;;;2.21;100.00
36828;BME280;22766;48.042;11.192;2023-03-05T09:12:00;94867.91;;;2.23;100.00
36828;BME280;22766;48.042;11.192;2023-03-05T09:14:27;94867.00;;;2.24;100.00
36828;BME280;22766;48.042;11.192;2023-03-05T09:16:56;94869.97;;;2.18;100.00
36828;BME280;22766;48.042;11.192;2023-03-05T09:19:23;94872.09;;;2.24;100.00
36828;BME280;22766;48.042;11.192;2023-03-05T09:21:51;94855.63;;;2.40;100.00
36828;BME280;22766;48.042;11.192;2023-03-05T09:24:20;94853.13;;;2.64;100.00
36828;BME280;22766;48.042;11.192;2023-03-05T09:26:46;94850.06;;;2.82;100.00
36828;BME280;22766;48.042;11.192;2023-03-05T09:29:13;94852.66;;;2.70;100.00
36828;BME280;22766;48.042;11.192;2023-03-05T09:31:40;94861.22;;;2.45;100.00
36828;BME280;22766;48.042;11.192;2023-03-05T09:34:09;94854.84;;;2.63;100.00
36828;BME280;22766;48.042;11.192;2023-03-05T09:36:36;94851.19;;;2.78;100.00
36828;BME280;22766;48.042;11.192;2023-03-05T09:39:03;94854.13;;;2.85;100.00
36828;BME280;22766;48.042;11.192;2023-03-05T09:41:52;94859.16;;;2.74;100.00
36828;BME280;22766;48.042;11.192;2023-03-05T09:49:52;94852.22;;;2.76;100.00
36828;BME280;22766;48.042;11.192;2023-03-05T09:52:35;94858.94;;;2.53;100.00
36828;BME280;22766;48.042;11.192;2023-03-05T09:55:11;94859.88;;;2.76;100.00
36828;BME280;22766;48.042;11.192;2023-03-05T09:57:43;94860.03;;;2.85;100.00
36828;BME280;22766;48.042;11.192;2023-03-05T10:00:28;94849.59;;;3.12;100.00
36828;BME280;22766;48.042;11.192;2023-03-05T10:03:04;94852.25;;;3.11;100.00
36828;BME280;22766;48.042;11.192;2023-03-05T10:08:18;94847.13;;;3.00;100.00
36828;BME280;22766;48.042;11.192;2023-03-05T10:10:49;94834.78;;;3.17;100.00
36828;BME280;22766;48.042;11.192;2023-03-05T10:16:03;94843.59;;;3.24;100.00
36828;BME280;22766;48.042;11.192;2023-03-05T10:18:44;94839.41;;;3.23;100.00
36828;BME280;22766;48.042;11.192;2023-03-05T10:27:18;94835.72;;;3.27;100.00
36828;BME280;22766;48.042;11.192;2023-03-05T10:30:15;94830.41;;;3.30;100.00
36828;BME280;22766;48.042;11.192;2023-03-05T10:36:20;94825.19;;;3.43;100.00
36828;BME280;22766;48.042;11.192;2023-03-05T10:46:45;94817.06;;;2.92;100.00
36828;BME280;22766;48.042;11.192;2023-03-05T10:49:22;94816.41;;;3.01;100.00
36828;BME280;22766;48.042;11.192;2023-03-05T10:51:55;94808.06;;;3.10;100.00
36828;BME280;22766;48.042;11.192;2023-03-05T10:54:30;94806.38;;;3.22;100.00
36828;BME280;22766;48.042;11.192;2023-03-05T10:57:22;94805.69;;;3.31;100.00
36828;BME280;22766;48.042;11.192;2023-03-05T11:02:31;94787.97;;;3.62;100.00
36828;BME280;22766;48.042;11.192;2023-03-05T11:04:58;94784.72;;;3.60;100.00
36828;BME280;22766;48.042;11.192;2023-03-05T11:10:02;94778.44;;;3.53;100.00
36828;BME280;22766;48.042;11.192;2023-03-05T11:12:37;94775.56;;;3.69;100.00
36828;BME280;22766;48.042;11.192;2023-03-05T11:17:44;94771.16;;;3.71;100.00
36828;BME280;22766;48.042;11.192;2023-03-05T11:25:30;94766.50;;;4.41;100.00
36828;BME280;22766;48.042;11.192;2023-03-05T11:28:00;94758.44;;;4.25;100.00
36828;BME280;22766;48.042;11.192;2023-03-05T11:30:35;94763.03;;;4.42;100.00
36828;BME280;22766;48.042;11.192;2023-03-05T11:35:41;94751.72;;;4.76;100.00
36828;BME280;22766;48.042;11.192;2023-03-05T11:38:20;94760.84;;;4.69;100.00
36828;BME280;22766;48.042;11.192;2023-03-05T11:40:50;94748.06;;;4.90;100.00
36828;BME280;22766;48.042;11.192;2023-03-05T11:43:19;94753.88;;;4.92;100.00
36828;BME280;22766;48.042;11.192;2023-03-05T11:45:49;94741.94;;;5.22;100.00
36828;BME280;22766;48.042;11.192;2023-03-05T11:48:20;94734.09;;;5.44;100.00
36828;BME280;22766;48.042;11.192;2023-03-05T11:50:54;94733.50;;;5.61;99.71
36828;BME280;22766;48.042;11.192;2023-03-05T11:53:25;94734.75;;;5.67;98.95
36828;BME280;22766;48.042;11.192;2023-03-05T11:59:12;94731.53;;;5.44;93.21
36828;BME280;22766;48.042;11.192;2023-03-05T12:01:44;94728.47;;;5.20;96.07
36828;BME280;22766;48.042;11.192;2023-03-05T12:04:11;94725.50;;;5.25;95.17
36828;BME280;22766;48.042;11.192;2023-03-05T12:06:59;94713.22;;;5.39;97.09
36828;BME280;22766;48.042;11.192;2023-03-05T12:09:42;94712.38;;;5.39;94.90
36828;BME280;22766;48.042;11.192;2023-03-05T12:17:42;94708.97;;;5.29;89.19
36828;BME280;22766;48.042;11.192;2023-03-05T12:20:21;94700.75;;;5.05;90.71
36828;BME280;22766;48.042;11.192;2023-03-05T12:22:54;94692.66;;;5.20;93.22
36828;BME280;22766;48.042;11.192;2023-03-05T12:25:45;94691.91;;;5.39;94.08
36828;BME280;22766;48.042;11.192;2023-03-05T12:33:41;94683.38;;;4.78;87.26
36828;BME280;22766;48.042;11.192;2023-03-05T12:38:55;94681.03;;;4.54;84.38
36828;BME280;22766;48.042;11.192;2023-03-05T12:46:34;94669.56;;;4.69;84.37
36828;BME280;22766;48.042;11.192;2023-03-05T12:51:44;94670.63;;;5.08;78.31
36828;BME280;22766;48.042;11.192;2023-03-05T12:54:34;94653.06;;;5.34;75.15
36828;BME280;22766;48.042;11.192;2023-03-05T12:57:22;94646.25;;;5.44;75.29
36828;BME280;22766;48.042;11.192;2023-03-05T12:59:57;94655.19;;;5.59;72.17
36828;BME280;22766;48.042;11.192;2023-03-05T13:02:33;94646.78;;;5.87;70.94
36828;BME280;22766;48.042;11.192;2023-03-05T13:05:04;94646.94;;;6.05;67.85
36828;BME280;22766;48.042;11.192;2023-03-05T13:07:33;94639.53;;;6.02;66.04
36828;BME280;22766;48.042;11.192;2023-03-05T13:09:59;94640.59;;;5.90;66.32
36828;BME280;22766;48.042;11.192;2023-03-05T13:12:28;94641.28;;;6.01;67.64
36828;BME280;22766;48.042;11.192;2023-03-05T13:15:01;94631.84;;;5.92;66.74
36828;BME280;22766;48.042;11.192;2023-03-05T13:17:31;94628.47;;;6.01;66.54
36828;BME280;22766;48.042;11.192;2023-03-05T13:20:01;94626.25;;;5.78;66.84
36828;BME280;22766;48.042;11.192;2023-03-05T13:22:28;94631.09;;;5.71;69.28
36828;BME280;22766;48.042;11.192;2023-03-05T13:25:16;94625.09;;;5.91;69.11
36828;BME280;22766;48.042;11.192;2023-03-05T13:27:46;94629.81;;;5.86;70.60
36828;BME280;22766;48.042;11.192;2023-03-05T13:30:25;94624.69;;;5.86;69.69
36828;BME280;22766;48.042;11.192;2023-03-05T13:32:58;94628.78;;;5.68;70.51
36828;BME280;22766;48.042;11.192;2023-03-05T13:35:32;94626.78;;;5.72;70.95
36828;BME280;22766;48.042;11.192;2023-03-05T13:37:59;94626.19;;;5.58;70.84
36828;BME280;22766;48.042;11.192;2023-03-05T13:40:30;94634.66;;;5.49;71.34
36828;BME280;22766;48.042;11.192;2023-03-05T13:43:11;94622.94;;;5.37;75.93
36828;BME280;22766;48.042;11.192;2023-03-05T13:45:38;94622.75;;;5.29;75.58
36828;BME280;22766;48.042;11.192;2023-03-05T13:48:06;94612.63;;;5.18;75.42
36828;BME280;22766;48.042;11.192;2023-03-05T13:50:35;94618.75;;;5.36;74.04
36828;BME280;22766;48.042;11.192;2023-03-05T13:55:42;94613.75;;;5.35;72.69
36828;BME280;22766;48.042;11.192;2023-03-05T14:03:59;94607.91;;;5.23;78.28
36828;BME280;22766;48.042;11.192;2023-03-05T14:06:29;94601.94;;;5.13;79.59
36828;BME280;22766;48.042;11.192;2023-03-05T14:09:16;94604.09;;;5.08;74.24
36828;BME280;22766;48.042;11.192;2023-03-05T14:11:53;94596.28;;;5.10;75.92
36828;BME280;22766;48.042;11.192;2023-03-05T14:14:21;94593.56;;;5.02;74.43
36828;BME280;22766;48.042;11.192;2023-03-05T14:16:48;94598.06;;;5.19;74.29